createdAt,value
2018-12-27T00:00:56.421Z,99073.44
2018-12-27T00:03:45.975Z,99071.54
2018-12-27T00:06:27.815Z,99069.28
2018-12-27T00:09:17.318Z,99060.96
2018-12-27T00:11:59.585Z,99001.95
2018-12-27T00:14:49.118Z,99064.39
2018-12-27T00:17:30.888Z,99059.23
2018-12-27T00:20:20.439Z,99056.83
2018-12-27T00:23:02.461Z,99059.59
2018-12-27T00:25:51.958Z,99045.91
2018-12-27T00:28:34.580Z,99046.75
2018-12-27T00:31:24.114Z,99045.37
2018-12-27T00:34:05.880Z,99047.10
2018-12-27T00:36:48.224Z,99035.49
2018-12-27T00:39:37.737Z,99043.55
2018-12-27T00:42:19.474Z,99036.23
2018-12-27T00:45:08.933Z,99018.99
2018-12-27T00:47:51.313Z,99036.98
2018-12-27T00:50:40.815Z,99003.03
2018-12-27T00:53:23.438Z,99031.72
2018-12-27T00:56:12.972Z,98985.20
2018-12-27T00:58:55.483Z,99023.94
2018-12-27T01:01:45.079Z,99041.29
2018-12-27T01:04:15.485Z,99043.66
2018-12-27T01:06:45.811Z,99037.12
2018-12-27T01:09:35.328Z,99038.19
2018-12-27T01:12:17.647Z,99042.47
2018-12-27T01:15:07.142Z,99042.95
2018-12-27T01:17:49.597Z,99040.52
2018-12-27T01:20:39.115Z,99042.98
2018-12-27T01:23:21.807Z,99037.09
2018-12-27T01:26:11.319Z,98992.63
2018-12-27T01:28:53.483Z,99035.66
2018-12-27T01:31:50.472Z,99043.89
2018-12-27T01:34:27.255Z,99043.09
2018-12-27T01:37:09.468Z,99033.92
2018-12-27T01:39:58.997Z,99030.78
2018-12-27T01:42:48.500Z,99031.25
2018-12-27T01:45:38.017Z,98960.11
2018-12-27T01:48:20.358Z,99045.02
2018-12-27T01:51:09.868Z,99018.02
2018-12-27T01:53:51.706Z,99012.52
2018-12-27T01:56:41.207Z,98961.62
2018-12-27T01:59:11.569Z,99020.45
2018-12-27T02:02:01.082Z,99019.69
2018-12-27T02:04:50.570Z,99020.39
2018-12-27T02:07:32.823Z,99017.84
2018-12-27T02:10:22.400Z,99015.36
2018-12-27T02:13:04.511Z,99019.83
2018-12-27T02:15:54.046Z,99023.70
2018-12-27T02:18:36.064Z,99010.39
2018-12-27T02:21:25.633Z,99012.31
2018-12-27T02:24:08.317Z,99005.23
2018-12-27T02:26:57.929Z,99004.73
2018-12-27T02:29:40.004Z,98926.88
2018-12-27T02:32:29.853Z,98951.38
2018-12-27T02:38:37.800Z,98991.62
2018-12-27T02:41:27.299Z,98990.23
2018-12-27T02:44:09.935Z,98993.11
2018-12-27T02:46:59.441Z,98981.53
2018-12-27T02:49:41.909Z,98955.41
2018-12-27T02:52:31.416Z,98988.75
2018-12-27T02:55:20.912Z,98980.23
2018-12-27T02:58:10.470Z,98967.75
2018-12-27T03:00:52.960Z,98966.18
2018-12-27T03:03:44.041Z,98962.52
2018-12-27T03:06:26.737Z,98960.70
2018-12-27T03:09:16.217Z,98953.63
2018-12-27T03:11:58.595Z,98935.85
2018-12-27T03:17:49.827Z,98949.44
2018-12-27T03:20:39.352Z,98952.42
2018-12-27T03:23:21.183Z,98953.45
2018-12-27T03:29:12.185Z,98941.27
2018-12-27T03:32:01.777Z,98939.05
2018-12-27T03:34:43.633Z,98869.25
2018-12-27T03:37:25.672Z,98931.09
2018-12-27T03:40:15.182Z,98936.50
2018-12-27T03:42:45.630Z,98924.61
2018-12-27T03:45:15.987Z,98924.08
2018-12-27T03:47:46.356Z,98927.95
2018-12-27T03:50:35.871Z,98920.56
2018-12-27T03:53:17.737Z,98923.05
2018-12-27T03:56:07.279Z,98924.75
2018-12-27T03:58:49.768Z,98851.53
2018-12-27T04:01:39.245Z,98911.92
2018-12-27T04:04:21.849Z,98909.61
2018-12-27T04:10:12.670Z,98825.55
2018-12-27T04:13:02.198Z,98898.55
2018-12-27T04:15:44.199Z,98862.62
2018-12-27T04:18:33.647Z,98894.63
2018-12-27T04:21:15.900Z,98837.82
2018-12-27T04:24:05.632Z,98889.98
2018-12-27T04:26:47.346Z,98822.63
2018-12-27T04:29:36.799Z,98888.03
2018-12-27T04:32:19.255Z,98885.22
2018-12-27T04:35:08.898Z,98890.09
2018-12-27T04:37:51.360Z,98823.02
2018-12-27T04:40:40.747Z,98829.84
2018-12-27T04:43:23.201Z,98894.51
2018-12-27T04:46:12.619Z,98901.34
2018-12-27T04:48:54.371Z,98903.52
2018-12-27T04:51:36.422Z,98897.16
2018-12-27T04:54:25.828Z,98901.33
2018-12-27T04:57:07.869Z,98906.06
2018-12-27T04:59:57.341Z,98898.81
2018-12-27T05:02:39.805Z,98900.59
2018-12-27T05:05:29.287Z,98900.00
2018-12-27T05:08:12.058Z,98899.73
2018-12-27T05:11:01.574Z,98896.30
2018-12-27T05:13:43.668Z,98836.94
2018-12-27T05:16:33.049Z,98899.20
2018-12-27T05:19:15.386Z,98900.23
2018-12-27T05:22:04.919Z,98904.20
2018-12-27T05:24:47.540Z,98901.14
2018-12-27T05:27:36.907Z,98879.80
2018-12-27T05:30:19.189Z,98902.16
2018-12-27T05:33:08.547Z,98900.05
2018-12-27T05:35:50.768Z,98899.67
2018-12-27T05:38:33.016Z,98898.38
2018-12-27T05:41:22.398Z,98899.94
2018-12-27T05:44:11.800Z,98898.08
2018-12-27T05:46:54.172Z,98900.69
2018-12-27T05:49:43.682Z,98897.11
2018-12-27T05:52:13.925Z,98900.27
2018-12-27T05:55:03.535Z,98902.22
2018-12-27T05:57:34.245Z,98899.11
2018-12-27T06:00:05.021Z,98898.50
2018-12-27T06:02:35.315Z,98894.86
2018-12-27T06:05:05.798Z,98894.05
2018-12-27T06:07:37.092Z,98881.56
2018-12-27T06:10:07.553Z,98880.38
2018-12-27T06:12:37.833Z,98881.77
2018-12-27T06:15:08.391Z,98877.86
2018-12-27T06:17:38.657Z,98879.52
2018-12-27T06:20:09.050Z,98888.31
2018-12-27T06:22:39.286Z,98891.55
2018-12-27T06:25:09.867Z,98902.53
2018-12-27T06:27:40.112Z,98899.53
2018-12-27T06:30:10.580Z,98908.29
2018-12-27T06:32:40.821Z,98901.30
2018-12-27T06:35:11.105Z,98891.75
2018-12-27T06:37:41.399Z,98893.33
2018-12-27T06:40:11.838Z,98889.85
2018-12-27T06:42:42.177Z,98888.98
2018-12-27T06:45:12.573Z,98896.48
2018-12-27T06:47:42.912Z,98900.74
2018-12-27T06:50:13.192Z,98912.14
2018-12-27T06:52:44.116Z,98919.05
2018-12-27T06:55:14.397Z,98917.42
2018-12-27T06:57:44.604Z,98916.53
2018-12-27T07:00:14.933Z,98909.50
2018-12-27T07:02:45.276Z,98911.98
2018-12-27T07:05:15.688Z,98913.08
2018-12-27T07:07:45.921Z,98914.86
2018-12-27T07:10:16.161Z,98898.59
2018-12-27T07:12:46.447Z,98900.12
2018-12-27T07:15:16.830Z,98900.56
2018-12-27T07:17:46.994Z,98895.66
2018-12-27T07:20:17.247Z,98898.14
2018-12-27T07:22:47.599Z,98895.39
2018-12-27T07:25:18.050Z,98896.60
2018-12-27T07:27:48.299Z,98897.38
2018-12-27T07:30:18.606Z,98888.95
2018-12-27T07:32:49.806Z,98892.84
2018-12-27T07:35:19.466Z,98902.34
2018-12-27T07:37:49.752Z,98900.19
2018-12-27T07:40:20.298Z,98900.16
2018-12-27T07:42:50.713Z,98901.74
2018-12-27T07:45:21.036Z,98898.94
2018-12-27T07:47:51.397Z,98881.83
2018-12-27T07:50:21.744Z,98879.95
2018-12-27T07:52:52.022Z,98886.42
2018-12-27T07:55:22.266Z,98883.89
2018-12-27T07:57:52.498Z,98879.87
2018-12-27T08:00:22.826Z,98882.19
2018-12-27T08:02:53.189Z,98877.22
2018-12-27T08:05:23.376Z,98875.55
2018-12-27T08:07:53.868Z,98870.27
2018-12-27T08:10:24.211Z,98869.66
2018-12-27T08:12:54.444Z,98872.34
2018-12-27T08:15:24.750Z,98869.58
2018-12-27T08:17:55.118Z,98867.58
2018-12-27T08:20:25.465Z,98872.37
2018-12-27T08:22:55.992Z,98881.40
2018-12-27T08:25:26.503Z,98880.48
2018-12-27T08:27:56.819Z,98879.19
2018-12-27T08:30:27.323Z,98871.40
2018-12-27T08:32:57.691Z,98867.85
2018-12-27T08:35:27.860Z,98871.70
2018-12-27T08:37:58.553Z,98878.58
2018-12-27T08:40:28.812Z,98880.63
2018-12-27T08:42:59.100Z,98872.16
2018-12-27T08:45:29.430Z,98884.31
2018-12-27T08:47:59.808Z,98882.61
2018-12-27T08:50:30.059Z,98882.52
2018-12-27T08:53:00.431Z,98881.34
2018-12-27T08:55:30.768Z,98888.72
2018-12-27T08:58:01.103Z,98882.13
2018-12-27T09:00:31.491Z,98880.80
2018-12-27T09:03:01.833Z,98874.64
2018-12-27T09:05:32.125Z,98873.43
2018-12-27T09:08:02.506Z,98875.29
2018-12-27T09:10:32.741Z,98878.47
2018-12-27T09:13:03.048Z,98876.77
2018-12-27T09:15:33.379Z,98872.72
2018-12-27T09:18:03.666Z,98876.66
2018-12-27T09:20:33.831Z,98873.89
2018-12-27T09:23:04.189Z,98876.72
2018-12-27T09:25:34.493Z,98878.79
2018-12-27T09:28:04.842Z,98877.83
2018-12-27T09:30:35.136Z,98869.39
2018-12-27T09:33:05.572Z,98877.10
2018-12-27T09:35:35.813Z,98868.09
2018-12-27T09:38:06.212Z,98866.27
2018-12-27T09:40:36.487Z,98866.17
2018-12-27T09:43:06.802Z,98864.59
2018-12-27T09:45:37.134Z,98861.55
2018-12-27T09:48:07.482Z,98861.80
2018-12-27T09:50:37.751Z,98865.41
2018-12-27T09:53:08.035Z,98874.06
2018-12-27T09:55:38.284Z,98865.64
2018-12-27T09:58:08.622Z,98864.41
2018-12-27T10:00:39.908Z,98862.56
2018-12-27T10:03:10.324Z,98863.88
2018-12-27T10:05:40.657Z,98861.03
2018-12-27T10:08:10.989Z,98867.66
2018-12-27T10:10:41.427Z,98863.27
2018-12-27T10:13:11.722Z,98866.55
2018-12-27T10:15:42.105Z,98866.45
2018-12-27T10:18:12.406Z,98866.34
2018-12-27T10:20:42.775Z,98863.27
2018-12-27T10:23:13.028Z,98860.79
2018-12-27T10:25:43.404Z,98863.24
2018-12-27T10:28:13.619Z,98864.19
2018-12-27T10:30:44.150Z,98864.05
2018-12-27T10:33:14.458Z,98862.92
2018-12-27T10:35:44.691Z,98864.39
2018-12-27T10:38:17.500Z,98857.58
2018-12-27T10:40:47.696Z,98855.13
2018-12-27T10:43:21.174Z,98845.48
2018-12-27T10:45:51.413Z,98846.81
2018-12-27T10:48:21.761Z,98843.54
2018-12-27T10:50:52.011Z,98834.05
2018-12-27T10:53:22.320Z,98830.14
2018-12-27T10:55:52.627Z,98827.59
2018-12-27T10:58:22.986Z,98819.58
2018-12-27T11:00:53.435Z,98819.95
2018-12-27T11:03:30.268Z,98808.16
2018-12-27T11:05:55.777Z,98800.44
2018-12-27T11:08:26.150Z,98794.03
2018-12-27T11:10:56.296Z,98792.24
2018-12-27T11:13:26.702Z,98795.88
2018-12-27T11:15:57.000Z,98793.41
2018-12-27T11:18:28.502Z,98788.50
2018-12-27T11:20:59.011Z,98781.44
2018-12-27T11:23:29.236Z,98777.49
2018-12-27T11:25:59.530Z,98773.36
2018-12-27T11:28:30.020Z,98777.30
2018-12-27T11:31:00.347Z,98772.71
2018-12-27T11:33:30.677Z,98768.30
2018-12-27T11:36:01.039Z,98763.64
2018-12-27T11:38:31.311Z,98763.04
2018-12-27T11:41:01.775Z,98755.91
2018-12-27T11:43:32.055Z,98753.30
2018-12-27T11:46:02.274Z,98755.73
2018-12-27T11:48:32.618Z,98745.73
2018-12-27T11:51:03.018Z,98745.22
2018-12-27T11:53:33.241Z,98744.41
2018-12-27T11:56:03.610Z,98742.90
2018-12-27T11:58:33.858Z,98740.45
2018-12-27T12:01:04.322Z,98740.95
2018-12-27T12:03:34.678Z,98741.14
2018-12-27T12:06:05.029Z,98737.01
2018-12-27T12:08:35.228Z,98739.73
2018-12-27T12:11:05.462Z,98737.47
2018-12-27T12:13:35.690Z,98733.30
2018-12-27T12:16:06.028Z,98734.27
2018-12-27T12:18:36.310Z,98719.48
2018-12-27T12:21:06.731Z,98721.86
2018-12-27T12:23:37.105Z,98720.04
2018-12-27T12:26:07.364Z,98719.46
2018-12-27T12:28:37.875Z,98713.86
2018-12-27T12:31:08.302Z,98709.94
2018-12-27T12:33:38.769Z,98713.05
2018-12-27T12:36:10.829Z,98704.82
2018-12-27T12:38:41.924Z,98707.91
2018-12-27T12:41:12.250Z,98706.06
2018-12-27T12:43:42.527Z,98703.87
2018-12-27T12:46:12.890Z,98703.05
2018-12-27T12:48:43.200Z,98702.43
2018-12-27T12:51:13.623Z,98707.81
2018-12-27T12:53:43.983Z,98705.69
2018-12-27T12:56:14.444Z,98706.33
2018-12-27T12:58:44.677Z,98704.50
2018-12-27T13:01:15.030Z,98704.97
2018-12-27T13:03:45.447Z,98700.54
2018-12-27T13:06:18.114Z,98695.14
2018-12-27T13:08:49.253Z,98700.94
2018-12-27T13:11:38.803Z,98700.45
2018-12-27T13:14:28.224Z,98700.52
2018-12-27T13:17:10.909Z,98708.70
2018-12-27T13:20:00.275Z,98701.83
2018-12-27T13:22:44.086Z,98702.30
2018-12-27T13:25:33.605Z,98695.95
2018-12-27T13:28:23.087Z,98691.45
2018-12-27T13:31:12.679Z,98689.53
2018-12-27T13:33:54.442Z,98687.12
2018-12-27T13:36:36.578Z,98683.98
2018-12-27T13:39:18.873Z,98684.34
2018-12-27T13:42:08.328Z,98663.88
2018-12-27T13:44:50.632Z,98677.68
2018-12-27T13:47:40.220Z,98654.42
2018-12-27T13:50:10.577Z,98686.52
2018-12-27T13:53:00.079Z,98683.13
2018-12-27T13:55:49.637Z,98668.88
2018-12-27T13:58:39.050Z,98681.02
2018-12-27T14:01:09.660Z,98683.34
2018-12-27T14:03:59.037Z,98685.34
2018-12-27T14:09:36.474Z,98686.16
2018-12-27T14:12:25.973Z,98689.91
2018-12-27T14:15:07.832Z,98692.05
2018-12-27T14:17:57.300Z,98678.80
2018-12-27T14:20:40.518Z,98685.98
2018-12-27T14:23:29.891Z,98680.25
2018-12-27T14:26:12.165Z,98680.27
2018-12-27T14:28:42.450Z,98682.41
2018-12-27T14:31:31.917Z,98680.95
2018-12-27T14:34:14.333Z,98680.27
2018-12-27T14:37:03.777Z,98686.19
2018-12-27T14:39:53.262Z,98622.25
2018-12-27T14:42:35.551Z,98684.69
2018-12-27T14:45:25.030Z,98691.73
2018-12-27T14:48:07.107Z,98686.82
2018-12-27T14:50:37.328Z,98689.92
2018-12-27T14:53:26.786Z,98688.23
2018-12-27T14:56:08.634Z,98693.45
2018-12-27T14:58:58.095Z,98695.39
2018-12-27T15:01:40.368Z,98637.35
2018-12-27T15:04:29.668Z,98695.05
2018-12-27T15:07:12.277Z,98693.06
2018-12-27T15:10:01.689Z,98698.11
2018-12-27T15:12:43.559Z,98694.95
2018-12-27T15:15:32.923Z,98702.44
2018-12-27T15:18:22.497Z,98697.28
2018-12-27T15:21:04.897Z,98701.34
2018-12-27T15:23:54.298Z,98695.72
2018-12-27T15:26:36.504Z,98689.76
2018-12-27T15:29:25.876Z,98699.11
2018-12-27T15:32:07.875Z,98693.97
2018-12-27T15:34:38.267Z,98686.49
2018-12-27T15:37:08.730Z,98694.77
2018-12-27T15:39:58.185Z,98682.23
2018-12-27T15:42:41.725Z,98687.22
2018-12-27T15:45:31.174Z,98688.77
2018-12-27T15:48:13.286Z,98695.91
2018-12-27T15:51:02.746Z,98690.96
2018-12-27T15:53:45.546Z,98698.19
2018-12-27T15:56:35.009Z,98649.84
2018-12-27T15:59:17.241Z,98671.46
2018-12-27T16:05:07.839Z,98703.61
2018-12-27T16:07:57.334Z,98707.02
2018-12-27T16:10:39.795Z,98664.77
2018-12-27T16:13:10.081Z,98712.63
2018-12-27T16:15:59.442Z,98716.74
2018-12-27T16:18:48.903Z,98718.89
2018-12-27T16:21:31.292Z,98721.47
2018-12-27T16:24:20.721Z,98663.80
2018-12-27T16:27:03.956Z,98719.16
2018-12-27T16:32:41.035Z,98722.29
2018-12-27T16:38:28.053Z,98722.05
2018-12-27T16:40:58.493Z,98719.78
2018-12-27T16:43:28.943Z,98718.61
2018-12-27T16:45:59.280Z,98714.55
2018-12-27T16:48:48.899Z,98708.50
2018-12-27T16:51:19.286Z,98674.25
2018-12-27T16:53:49.643Z,98706.85
2018-12-27T16:57:04.745Z,98707.64
2018-12-27T16:59:26.538Z,98708.61
2018-12-27T17:02:16.077Z,98704.17
2018-12-27T17:04:58.433Z,98739.62
2018-12-27T17:07:47.950Z,98686.27
2018-12-27T17:10:36.574Z,98716.54
2018-12-27T17:13:18.427Z,98712.35
2018-12-27T17:19:04.259Z,98724.97
2018-12-27T17:21:46.874Z,98714.55
2018-12-27T17:24:36.450Z,98702.38
2018-12-27T17:27:06.980Z,98713.59
2018-12-27T17:30:15.489Z,98704.62
2018-12-27T17:32:45.881Z,98714.89
2018-12-27T17:35:35.328Z,98715.10
2018-12-27T17:38:05.799Z,98719.73
2018-12-27T17:40:55.476Z,98717.58
2018-12-27T17:43:25.971Z,98672.24
2018-12-27T17:46:15.625Z,98721.09
2018-12-27T17:48:48.940Z,98679.98
2018-12-27T17:51:19.508Z,98719.71
2018-12-27T17:54:09.063Z,98711.39
2018-12-27T17:56:39.324Z,98715.48
2018-12-27T17:59:28.869Z,98719.71
2018-12-27T18:05:00.868Z,98717.61
2018-12-27T18:07:50.317Z,98719.14
2018-12-27T18:10:32.011Z,98744.35
2018-12-27T18:13:21.438Z,98716.41
2018-12-27T18:16:03.732Z,98720.76
2018-12-27T18:18:53.195Z,98720.19
2018-12-27T18:21:35.615Z,98720.23
2018-12-27T18:24:25.178Z,98723.71
2018-12-27T18:27:07.653Z,98645.44
2018-12-27T18:29:57.089Z,98718.23
2018-12-27T18:32:39.429Z,98712.92
2018-12-27T18:35:28.826Z,98721.58
2018-12-27T18:38:22.089Z,98731.06
2018-12-27T18:43:59.516Z,98673.50
2018-12-27T18:46:49.080Z,98724.72
2018-12-27T18:49:31.575Z,98718.41
2018-12-27T18:52:20.932Z,98725.84
2018-12-27T18:55:02.681Z,98717.05
2018-12-27T18:57:52.267Z,98727.84
2018-12-27T19:00:34.466Z,98730.06
2018-12-27T19:06:20.078Z,98718.06
2018-12-27T19:09:01.744Z,98784.26
2018-12-27T19:15:01.650Z,98728.45
2018-12-27T19:18:29.313Z,98653.88
2018-12-27T19:21:57.021Z,98733.52
2018-12-27T19:36:38.497Z,98749.73
2018-12-27T19:39:20.852Z,98734.86
2018-12-27T19:42:10.374Z,98744.05
2018-12-27T19:44:52.007Z,98751.66
2018-12-27T19:47:41.568Z,98749.87
2018-12-27T19:50:23.621Z,98749.70
2018-12-27T19:53:13.154Z,98717.23
2018-12-27T19:55:55.648Z,98744.48
2018-12-27T19:58:45.862Z,98687.72
2018-12-27T20:01:29.808Z,98742.42
2018-12-27T20:07:26.127Z,98744.03
2018-12-27T20:10:08.468Z,98748.82
2018-12-27T20:12:38.879Z,98678.33
2018-12-27T20:15:28.447Z,98754.06
2018-12-27T20:17:58.703Z,98688.73
2018-12-27T20:20:48.263Z,98751.81
2018-12-27T20:23:37.810Z,98705.73
2018-12-27T20:26:19.934Z,98725.63
2018-12-27T20:29:09.461Z,98757.22
2018-12-27T20:31:52.147Z,98761.63
2018-12-27T20:34:41.495Z,98701.09
2018-12-27T20:37:23.645Z,98757.98
2018-12-27T20:40:13.238Z,98749.63
2018-12-27T20:42:55.493Z,98686.33
2018-12-27T20:45:44.913Z,98733.47
2018-12-27T20:48:27.442Z,98737.08
2018-12-27T20:51:16.985Z,98729.55
2018-12-27T20:53:59.570Z,98732.37
2018-12-27T20:59:51.802Z,98740.17
2018-12-27T21:02:33.773Z,98697.09
2018-12-27T21:05:23.304Z,98737.15
2018-12-27T21:08:05.955Z,98747.36
2018-12-27T21:10:55.488Z,98732.81
2018-12-27T21:16:34.279Z,98735.53
2018-12-27T21:22:11.373Z,98729.61
2018-12-27T21:25:00.844Z,98730.74
2018-12-27T21:27:43.523Z,98733.32
2018-12-27T21:30:33.007Z,98736.84
2018-12-27T21:33:15.402Z,98714.01
2018-12-27T21:36:04.879Z,98743.44
2018-12-27T21:38:46.724Z,98744.22
2018-12-27T21:41:36.206Z,98745.22
2018-12-27T21:44:18.300Z,98729.80
2018-12-27T21:47:07.701Z,98745.03
2018-12-27T21:49:50.313Z,98732.62
2018-12-27T21:52:39.766Z,98737.89
2018-12-27T21:55:21.927Z,98699.77
2018-12-27T21:58:11.435Z,98735.33
2018-12-27T22:00:53.661Z,98676.03
2018-12-27T22:03:43.141Z,98753.99
2018-12-27T22:06:25.456Z,98747.20
2018-12-27T22:09:14.921Z,98746.89
2018-12-27T22:11:56.957Z,98716.10
2018-12-27T22:14:46.371Z,98789.94
2018-12-27T22:17:28.890Z,98757.22
2018-12-27T22:19:59.245Z,98746.89
2018-12-27T22:22:48.878Z,98745.38
2018-12-27T22:25:38.393Z,98696.88
2018-12-27T22:28:20.816Z,98746.80
2018-12-27T22:31:10.267Z,98743.97
2018-12-27T22:33:40.670Z,98724.38
2018-12-27T22:36:30.047Z,98743.92
2018-12-27T22:39:12.513Z,98746.29
2018-12-27T22:44:57.822Z,98757.28
2018-12-27T22:53:33.017Z,98744.06
2018-12-27T22:59:21.593Z,98743.45
2018-12-27T23:02:03.623Z,98742.40
2018-12-27T23:04:53.126Z,98731.06
2018-12-27T23:07:35.005Z,98722.48
2018-12-27T23:10:24.447Z,98721.02
2018-12-27T23:13:06.478Z,98726.14
2018-12-27T23:15:55.889Z,98661.91
2018-12-27T23:18:38.262Z,98724.75
2018-12-27T23:24:22.765Z,98663.64
2018-12-27T23:27:04.968Z,98730.36
2018-12-27T23:29:54.344Z,98728.67
2018-12-27T23:32:36.267Z,98725.23
2018-12-27T23:35:25.647Z,98724.88
2018-12-27T23:38:08.204Z,98726.05
2018-12-27T23:40:57.661Z,98720.40
2018-12-27T23:43:40.183Z,98713.19
2018-12-27T23:46:29.753Z,98749.02
2018-12-27T23:49:12.077Z,98674.67
2018-12-27T23:52:01.542Z,98706.91
2018-12-27T23:54:43.778Z,98697.30
2018-12-27T23:57:33.141Z,98686.03
